Amarillo, TX (79105)

3:54 AM CST on February 11, 2016 (GMT -0600)
Rural Area East of Canyon | | Change Station
CLOSE
Current Station
Personal Weather Station
Location: Canyon, TX
Elevation: 3612 ft
Nearby Weather Stations

Elev 3612 ft 35.02 °N, 101.82 °W | Updated 3 minutes ago

Mostly Cloudy
Mostly Cloudy
32.4 °F
Feels Like 32 °F
N
1.7
Wind Variable Wind from NW

Today
High -- | Low -- °F
--% Chance of Precip.
Yesterday
High -- | Low -- °F
Precip. -- in
Pressure 30.03 in
Visibility 10.0 miles
Clouds Clear
Windchill 32 °F
Dew Point 15 °F
Humidity 49%
Rainfall 0.00 in
Snow Depth Not available.
7:37 AM 6:25 PM
Waxing Crescent, 11% visible
METAR KAMA 110853Z AUTO 34007KT 10SM CLR 03/M09 A3011 RMK AO2 SLP169 T00331089 53013
Pressure 30.03 in
Visibility 10.0 miles
Clouds Clear
Windchill 32 °F
Dew Point 15 °F
Humidity 49%
Rainfall 0.00 in
Snow Depth Not available.
7:37 AM 6:25 PM
Waxing Crescent, 11% visible
METAR KAMA 110853Z AUTO 34007KT 10SM CLR 03/M09 A3011 RMK AO2 SLP169 T00331089 53013

10-Day Weather Forecast

Almanac

Astronomy

Feb. 11, 2016 Rise Set
Actual Time
Civil Twilight
Nautical Twilight
Astronomical Twilight
Moon
Length of Visible Light
Length of Day
Tomorrow will be .
, % of the Moon is Illuminated

Today's Extremes

State Highs State Lows

Community

WunderPhotos

Upload Photos

1,892,030 photos uploaded!

WunderBlog® & News

Nearby

Air Quality

  Air Quality AQ Index Pollutant
Not available.

Snow Depth

Station Depth Elevation

Earthquake Activity

City Distance Mag. Time & Date
Minimum magnitude displayed is 2.5.

Coastal Water Temperatures

Place Temperature

Stations

Nearby Weather Stations

Station Location Temp. Windchill Dew Point Humidity Wind Precip. Elev Updated Type
                   

Watches & Warnings

There are currently no watches in effect.